Time;durP1;ratioP1;P1;durP2;ratioP2;P2;SDS_P1;SDS_P2;PMS_P1;PMS_P2;Temp;Humidity;BMP_temperature;BMP_pressure;BME280_temperature;BME280_humidity;BME280_pressure;Samples;Min_cycle;Max_cycle;Signal;HPM_P1;HPM_P2
2021/11/23 00:01:12;;;;;;;10.35;6.68;;;;;;;;;;4985807;28;20184;-80
2021/11/23 00:03:38;;;;;;;13.23;6.75;;;;;;;;;;4998806;28;20227;-80
2021/11/23 00:06:04;;;;;;;11.68;8.20;;;;;;;;;;4992150;28;20203;-80
2021/11/23 00:08:30;;;;;;;10.65;7.55;;;;;;;;;;4982695;28;20218;-80
2021/11/23 00:10:56;;;;;;;10.98;8.40;;;;;;;;;;4998349;28;20251;-80
2021/11/23 00:13:22;;;;;;;13.73;8.70;;;;;;;;;;4978850;28;20199;-80
2021/11/23 00:15:48;;;;;;;17.17;10.18;;;;;;;;;;4992796;28;20457;-80
2021/11/23 00:18:14;;;;;;;17.08;9.50;;;;;;;;;;4993412;28;20531;-80
2021/11/23 00:20:42;;;;;;;19.95;9.40;;;;;;;;;;4977862;28;20193;-80
2021/11/23 00:23:08;;;;;;;14.90;9.60;;;;;;;;;;4987740;28;20180;-80
2021/11/23 00:25:34;;;;;;;17.00;9.73;;;;;;;;;;4995598;28;20198;-80
2021/11/23 00:28:00;;;;;;;17.42;9.32;;;;;;;;;;4981495;28;20180;-81
2021/11/23 00:30:27;;;;;;;12.75;7.50;;;;;;;;;;4977746;28;20211;-81
2021/11/23 00:32:54;;;;;;;14.25;7.90;;;;;;;;;;4994542;28;20196;-80
2021/11/23 00:35:20;;;;;;;12.82;8.07;;;;;;;;;;4983735;28;20226;-80
2021/11/23 00:37:47;;;;;;;11.57;6.95;;;;;;;;;;4998455;28;20224;-80
2021/11/23 00:40:14;;;;;;;14.70;8.48;;;;;;;;;;4980367;28;20196;-80
2021/11/23 00:42:40;;;;;;;9.98;7.18;;;;;;;;;;4979827;28;20172;-80
2021/11/23 00:45:07;;;;;;;11.65;7.60;;;;;;;;;;4994164;28;20176;-80
2021/11/23 00:47:33;;;;;;;10.18;7.45;;;;;;;;;;4993656;28;20211;-80
2021/11/23 00:49:59;;;;;;;14.88;7.70;;;;;;;;;;4996445;28;20739;-80
2021/11/23 00:52:25;;;;;;;9.65;7.22;;;;;;;;;;4977348;28;20790;-80
2021/11/23 00:54:51;;;;;;;9.32;5.90;;;;;;;;;;4980739;28;20184;-80
2021/11/23 00:57:17;;;;;;;10.02;6.53;;;;;;;;;;4977894;28;20541;-80
2021/11/23 00:59:43;;;;;;;9.45;6.95;;;;;;;;;;4992326;28;20208;-80
2021/11/23 01:02:11;;;;;;;9.10;7.22;;;;;;;;;;4996221;28;20184;-80
2021/11/23 01:04:37;;;;;;;9.48;6.25;;;;;;;;;;4979171;28;20204;-80
2021/11/23 01:07:03;;;;;;;10.30;6.70;;;;;;;;;;5014366;28;20168;-80
2021/11/23 01:09:29;;;;;;;9.57;6.57;;;;;;;;;;4978680;28;20180;-80
2021/11/23 01:11:56;;;;;;;9.77;5.82;;;;;;;;;;4992015;28;20235;-80
2021/11/23 01:14:22;;;;;;;7.85;5.45;;;;;;;;;;4979123;28;20199;-80
2021/11/23 01:16:49;;;;;;;15.15;6.28;;;;;;;;;;4994756;28;20271;-80
2021/11/23 01:19:15;;;;;;;10.63;5.85;;;;;;;;;;4977825;28;20199;-80
2021/11/23 01:21:42;;;;;;;9.50;5.63;;;;;;;;;;4979258;28;20210;-80
2021/11/23 01:24:08;;;;;;;7.50;5.57;;;;;;;;;;4981256;28;20226;-80
2021/11/23 01:26:34;;;;;;;7.18;5.55;;;;;;;;;;4979267;28;20537;-81
2021/11/23 01:29:00;;;;;;;8.43;6.38;;;;;;;;;;4996183;28;20192;-80
2021/11/23 01:31:27;;;;;;;7.75;6.18;;;;;;;;;;4977372;28;20216;-80
2021/11/23 01:33:53;;;;;;;7.50;6.25;;;;;;;;;;4995503;28;20183;-80
2021/11/23 01:36:19;;;;;;;16.42;6.60;;;;;;;;;;4981339;28;20227;-80
2021/11/23 01:38:45;;;;;;;6.82;5.15;;;;;;;;;;4991868;28;20208;-81
2021/11/23 01:41:11;;;;;;;7.57;5.55;;;;;;;;;;4996630;28;20184;-80
2021/11/23 01:43:37;;;;;;;6.78;5.60;;;;;;;;;;4992759;28;20271;-80
2021/11/23 01:46:04;;;;;;;10.30;6.60;;;;;;;;;;4978783;28;20164;-80
2021/11/23 01:48:31;;;;;;;7.93;5.75;;;;;;;;;;4977723;28;20176;-80
2021/11/23 01:50:57;;;;;;;8.05;6.20;;;;;;;;;;4980387;28;20195;-80
2021/11/23 01:53:23;;;;;;;10.32;5.93;;;;;;;;;;4980009;28;20200;-80
2021/11/23 01:55:49;;;;;;;7.95;5.32;;;;;;;;;;4982059;28;20764;-80
2021/11/23 01:58:16;;;;;;;8.95;6.18;;;;;;;;;;4978413;28;20187;-80
2021/11/23 02:00:43;;;;;;;12.85;6.00;;;;;;;;;;4979094;28;20439;-80
2021/11/23 02:03:09;;;;;;;8.95;5.60;;;;;;;;;;4991092;28;20184;-80
2021/11/23 02:05:35;;;;;;;6.22;5.35;;;;;;;;;;4994103;28;20188;-80
2021/11/23 02:08:02;;;;;;;6.00;5.43;;;;;;;;;;4978757;28;20214;-80
2021/11/23 02:10:28;;;;;;;7.95;5.40;;;;;;;;;;4966677;28;20199;-80
2021/11/23 02:12:54;;;;;;;7.10;5.72;;;;;;;;;;4995038;28;20232;-80
2021/11/23 02:15:21;;;;;;;7.93;4.82;;;;;;;;;;4976290;28;20196;-80
2021/11/23 02:17:47;;;;;;;5.80;4.95;;;;;;;;;;4975800;28;20252;-80
2021/11/23 02:20:21;;;;;;;6.95;5.93;;;;;;;;;;4994913;28;20206;-80
2021/11/23 02:22:47;;;;;;;8.85;5.70;;;;;;;;;;4994391;28;20179;-80
2021/11/23 02:25:14;;;;;;;7.55;6.25;;;;;;;;;;4977122;28;20175;-80
2021/11/23 02:27:42;;;;;;;8.90;6.40;;;;;;;;;;4992990;28;20226;-80
2021/11/23 02:30:09;;;;;;;8.50;5.47;;;;;;;;;;4990623;28;20188;-80
2021/11/23 02:32:43;;;;;;;6.95;5.70;;;;;;;;;;4995422;28;20199;-80
2021/11/23 02:35:10;;;;;;;8.80;6.05;;;;;;;;;;4980818;28;20188;-79
2021/11/23 02:37:46;;;;;;;8.90;5.45;;;;;;;;;;4991932;28;20192;-80
2021/11/23 02:40:12;;;;;;;7.32;4.80;;;;;;;;;;4977105;28;20222;-80
2021/11/23 02:42:38;;;;;;;6.68;5.30;;;;;;;;;;4992487;28;20188;-80
2021/11/23 02:45:05;;;;;;;9.43;5.45;;;;;;;;;;4990821;28;20184;-80
2021/11/23 02:47:34;;;;;;;8.30;5.85;;;;;;;;;;4992385;28;20184;-80
2021/11/23 02:50:01;;;;;;;9.73;6.32;;;;;;;;;;4994505;28;20223;-80
2021/11/23 02:52:27;;;;;;;8.10;6.93;;;;;;;;;;4975279;28;20211;-80
2021/11/23 02:55:01;;;;;;;6.80;5.80;;;;;;;;;;4994108;28;20202;-80
2021/11/23 02:57:28;;;;;;;9.32;6.10;;;;;;;;;;4989693;28;20271;-80
2021/11/23 02:59:54;;;;;;;6.30;5.65;;;;;;;;;;4975660;28;20214;-80
2021/11/23 03:02:20;;;;;;;11.18;6.93;;;;;;;;;;4995746;28;20641;-80
2021/11/23 03:04:53;;;;;;;7.00;6.30;;;;;;;;;;4977951;28;20188;-80
2021/11/23 03:07:20;;;;;;;5.90;5.32;;;;;;;;;;5009025;28;20190;-80
2021/11/23 03:09:46;;;;;;;8.25;5.93;;;;;;;;;;4999165;28;20266;-80
2021/11/23 03:12:16;;;;;;;10.82;6.22;;;;;;;;;;4992368;28;20370;-81
2021/11/23 03:14:43;;;;;;;7.22;5.70;;;;;;;;;;4976005;28;20196;-81
2021/11/23 03:17:09;;;;;;;11.68;6.90;;;;;;;;;;4971435;28;20194;-81
2021/11/23 03:19:35;;;;;;;7.90;6.25;;;;;;;;;;4993064;28;20211;-80
2021/11/23 03:22:02;;;;;;;11.68;7.00;;;;;;;;;;4977618;28;20192;-80
2021/11/23 03:24:28;;;;;;;7.90;5.97;;;;;;;;;;4990279;28;20176;-80
2021/11/23 03:26:55;;;;;;;8.75;6.43;;;;;;;;;;4972454;28;20188;-80
2021/11/23 03:29:21;;;;;;;11.55;6.13;;;;;;;;;;4971793;28;20743;-80
2021/11/23 03:31:47;;;;;;;8.18;6.38;;;;;;;;;;4981131;28;20190;-80
2021/11/23 03:34:14;;;;;;;13.23;6.65;;;;;;;;;;4975986;28;20207;-80
2021/11/23 03:36:40;;;;;;;8.35;5.75;;;;;;;;;;4993967;28;20172;-80
2021/11/23 03:39:07;;;;;;;7.88;6.22;;;;;;;;;;4989684;28;20233;-80
2021/11/23 03:41:33;;;;;;;7.35;6.28;;;;;;;;;;4993162;28;20181;-80
2021/11/23 03:43:59;;;;;;;8.02;6.57;;;;;;;;;;4979142;28;20525;-80
2021/11/23 03:46:25;;;;;;;10.45;7.90;;;;;;;;;;4974896;28;20173;-80
2021/11/23 03:48:52;;;;;;;9.25;7.55;;;;;;;;;;4978303;28;20231;-80
2021/11/23 03:51:19;;;;;;;10.35;7.18;;;;;;;;;;4974820;28;20191;-80
2021/11/23 03:53:45;;;;;;;7.28;5.80;;;;;;;;;;4989912;28;20181;-80
2021/11/23 03:56:13;;;;;;;9.00;7.07;;;;;;;;;;4994265;28;20203;-80
2021/11/23 03:58:39;;;;;;;7.65;5.32;;;;;;;;;;4990468;28;20285;-80
2021/11/23 04:01:05;;;;;;;9.80;6.45;;;;;;;;;;4977150;28;20958;-80
2021/11/23 04:03:31;;;;;;;10.70;7.15;;;;;;;;;;4976376;28;20180;-80
2021/11/23 04:05:57;;;;;;;8.38;6.78;;;;;;;;;;4990196;28;20256;-80
2021/11/23 04:08:24;;;;;;;10.20;6.85;;;;;;;;;;4993728;28;20323;-80
2021/11/23 04:10:50;;;;;;;11.93;7.30;;;;;;;;;;4981490;28;20184;-80
2021/11/23 04:13:18;;;;;;;7.40;6.70;;;;;;;;;;4985619;28;20262;-80
2021/11/23 04:15:44;;;;;;;9.60;7.35;;;;;;;;;;4984660;28;20516;-80
2021/11/23 04:18:10;;;;;;;10.80;7.75;;;;;;;;;;4997373;28;20191;-80
2021/11/23 04:20:36;;;;;;;7.70;6.88;;;;;;;;;;4994417;28;20235;-80
2021/11/23 04:23:02;;;;;;;12.50;7.10;;;;;;;;;;4998860;28;20180;-79
2021/11/23 04:25:28;;;;;;;8.98;7.07;;;;;;;;;;4978174;28;20247;-79
2021/11/23 04:27:55;;;;;;;8.65;6.55;;;;;;;;;;4980950;28;20183;-80
2021/11/23 04:30:21;;;;;;;6.78;6.07;;;;;;;;;;4993280;28;20196;-79
2021/11/23 04:32:47;;;;;;;9.95;7.05;;;;;;;;;;4993365;28;20676;-80
2021/11/23 04:35:13;;;;;;;7.55;6.28;;;;;;;;;;4996844;28;20195;-80
2021/11/23 04:37:40;;;;;;;7.85;6.60;;;;;;;;;;4979513;28;20208;-80
2021/11/23 04:40:08;;;;;;;8.80;7.00;;;;;;;;;;4980794;28;20681;-80
2021/11/23 04:42:34;;;;;;;9.52;7.55;;;;;;;;;;4994238;28;20188;-79
2021/11/23 04:45:00;;;;;;;14.02;7.10;;;;;;;;;;4977911;28;20192;-80
2021/11/23 04:47:26;;;;;;;9.52;7.60;;;;;;;;;;4981814;28;20252;-79
2021/11/23 04:49:52;;;;;;;11.77;6.75;;;;;;;;;;4980734;28;20196;-80
2021/11/23 04:52:18;;;;;;;9.98;7.32;;;;;;;;;;4978298;28;20184;-80
2021/11/23 04:54:45;;;;;;;7.57;6.15;;;;;;;;;;4996468;28;20220;-80
2021/11/23 04:57:11;;;;;;;7.82;5.82;;;;;;;;;;4977186;28;20176;-80
2021/11/23 04:59:37;;;;;;;9.60;6.85;;;;;;;;;;4993110;28;20208;-80
2021/11/23 05:02:04;;;;;;;10.23;7.65;;;;;;;;;;4997501;28;20194;-80
2021/11/23 05:04:30;;;;;;;8.35;6.25;;;;;;;;;;4977783;28;20183;-80
2021/11/23 05:06:56;;;;;;;15.43;7.68;;;;;;;;;;4981288;28;20207;-80
2021/11/23 05:09:22;;;;;;;10.02;7.53;;;;;;;;;;4981271;28;20226;-80
2021/11/23 05:11:48;;;;;;;10.30;7.57;;;;;;;;;;4993550;28;20303;-80
2021/11/23 05:14:15;;;;;;;14.15;7.30;;;;;;;;;;4995897;28;20195;-80
2021/11/23 05:16:42;;;;;;;9.52;6.50;;;;;;;;;;4993648;28;20269;-80
2021/11/23 05:19:08;;;;;;;14.55;7.38;;;;;;;;;;4982622;28;20207;-80
2021/11/23 05:21:34;;;;;;;11.90;8.02;;;;;;;;;;4984031;28;20183;-80
2021/11/23 05:24:00;;;;;;;11.52;7.68;;;;;;;;;;4983096;28;20187;-80
2021/11/23 05:26:27;;;;;;;12.23;8.07;;;;;;;;;;4979427;28;20325;-80
2021/11/23 05:28:53;;;;;;;14.32;8.65;;;;;;;;;;4994735;28;20187;-81
2021/11/23 05:31:19;;;;;;;11.90;7.90;;;;;;;;;;4977553;28;20191;-80
2021/11/23 05:33:45;;;;;;;10.57;7.60;;;;;;;;;;4979384;28;20187;-80
2021/11/23 05:36:12;;;;;;;9.23;8.32;;;;;;;;;;4975627;28;20263;-80
2021/11/23 05:38:38;;;;;;;11.50;7.20;;;;;;;;;;4991798;28;20188;-81
2021/11/23 05:41:04;;;;;;;13.05;8.90;;;;;;;;;;4981694;28;20581;-80
2021/11/23 05:43:31;;;;;;;7.90;7.10;;;;;;;;;;4977858;28;20214;-80
2021/11/23 05:45:57;;;;;;;11.20;7.97;;;;;;;;;;4996184;28;20256;-80
2021/11/23 05:48:23;;;;;;;14.13;8.23;;;;;;;;;;4991315;28;20192;-80
2021/11/23 05:50:49;;;;;;;9.68;7.32;;;;;;;;;;4990731;28;20176;-80
2021/11/23 05:53:15;;;;;;;10.82;7.78;;;;;;;;;;4994543;28;20207;-81
2021/11/23 05:55:41;;;;;;;9.73;7.40;;;;;;;;;;4993440;28;20183;-81
2021/11/23 05:58:08;;;;;;;8.75;7.25;;;;;;;;;;4981773;28;20207;-80
2021/11/23 06:00:34;;;;;;;13.85;9.27;;;;;;;;;;4992822;28;20246;-81
2021/11/23 06:03:00;;;;;;;13.27;8.35;;;;;;;;;;4976574;28;20188;-80
2021/11/23 06:05:26;;;;;;;12.25;8.15;;;;;;;;;;4978775;28;20191;-80
2021/11/23 06:07:52;;;;;;;10.68;8.57;;;;;;;;;;4994179;28;20187;-80
2021/11/23 06:10:18;;;;;;;10.15;8.13;;;;;;;;;;4977898;28;20598;-81
2021/11/23 06:12:44;;;;;;;8.18;7.40;;;;;;;;;;4978927;28;20578;-80
2021/11/23 06:15:13;;;;;;;11.57;8.65;;;;;;;;;;4976319;28;20199;-81
2021/11/23 06:17:39;;;;;;;13.02;8.02;;;;;;;;;;4994720;28;20187;-81
2021/11/23 06:20:05;;;;;;;11.43;7.95;;;;;;;;;;4979918;28;20207;-80
2021/11/23 06:22:32;;;;;;;11.32;8.02;;;;;;;;;;4980089;28;20246;-80
2021/11/23 06:24:58;;;;;;;12.35;7.43;;;;;;;;;;4981401;28;20609;-80
2021/11/23 06:27:24;;;;;;;8.57;7.53;;;;;;;;;;4976324;28;20184;-80
2021/11/23 06:29:50;;;;;;;9.88;8.48;;;;;;;;;;4978940;28;20246;-80
2021/11/23 06:32:17;;;;;;;11.05;8.90;;;;;;;;;;4996072;28;20699;-81
2021/11/23 06:34:43;;;;;;;13.93;8.40;;;;;;;;;;4980203;28;20188;-81
2021/11/23 06:37:09;;;;;;;10.27;8.02;;;;;;;;;;4982930;28;20195;-81
2021/11/23 06:39:35;;;;;;;10.35;7.75;;;;;;;;;;4995170;28;20206;-81
2021/11/23 06:42:01;;;;;;;11.30;8.10;;;;;;;;;;4996067;28;20282;-81
2021/11/23 06:44:27;;;;;;;10.05;7.63;;;;;;;;;;4996342;28;20227;-80
2021/11/23 06:46:53;;;;;;;11.68;7.05;;;;;;;;;;4996704;28;20195;-80
2021/11/23 06:49:19;;;;;;;11.05;7.35;;;;;;;;;;4982755;28;20187;-80
2021/11/23 06:51:45;;;;;;;11.02;7.68;;;;;;;;;;4996048;28;20190;-80
2021/11/23 06:54:11;;;;;;;11.48;7.50;;;;;;;;;;4981567;28;20251;-80
2021/11/23 06:56:38;;;;;;;11.18;7.90;;;;;;;;;;4992114;28;20184;-80
2021/11/23 06:59:04;;;;;;;12.65;8.07;;;;;;;;;;4980690;28;20207;-80
2021/11/23 07:01:30;;;;;;;9.73;6.75;;;;;;;;;;4990763;28;20175;-80
2021/11/23 07:03:57;;;;;;;10.95;7.05;;;;;;;;;;4981532;28;20230;-80
2021/11/23 07:06:23;;;;;;;13.60;8.88;;;;;;;;;;4974699;28;20190;-81
2021/11/23 07:08:49;;;;;;;8.35;6.88;;;;;;;;;;4979660;28;20218;-81
2021/11/23 07:11:15;;;;;;;9.93;7.57;;;;;;;;;;4994470;28;20740;-81
2021/11/23 07:13:41;;;;;;;10.90;7.38;;;;;;;;;;4991706;28;20224;-80
2021/11/23 07:16:07;;;;;;;8.40;6.03;;;;;;;;;;4976525;28;20249;-80
2021/11/23 07:18:33;;;;;;;7.80;6.13;;;;;;;;;;4983062;28;20182;-81
2021/11/23 07:20:59;;;;;;;9.00;7.57;;;;;;;;;;4991503;28;20200;-81
2021/11/23 07:23:26;;;;;;;11.93;7.95;;;;;;;;;;4992859;28;20185;-81
2021/11/23 07:25:52;;;;;;;9.48;7.63;;;;;;;;;;4978702;28;20189;-81
2021/11/23 07:28:18;;;;;;;11.00;7.78;;;;;;;;;;4976518;28;20179;-81
2021/11/23 07:30:44;;;;;;;11.40;6.97;;;;;;;;;;4991822;28;20180;-81
2021/11/23 07:33:10;;;;;;;10.10;7.45;;;;;;;;;;4997093;28;20215;-81
2021/11/23 07:35:36;;;;;;;9.73;7.57;;;;;;;;;;4990544;28;20203;-81
2021/11/23 07:38:02;;;;;;;11.48;6.85;;;;;;;;;;4981683;28;20192;-81
2021/11/23 07:40:28;;;;;;;10.05;7.15;;;;;;;;;;4974597;28;20239;-81
2021/11/23 07:42:55;;;;;;;12.85;8.18;;;;;;;;;;4994172;28;20183;-81
2021/11/23 07:45:22;;;;;;;8.07;6.43;;;;;;;;;;4993315;28;20187;-80
2021/11/23 07:47:48;;;;;;;10.00;7.88;;;;;;;;;;4981473;28;20176;-81
2021/11/23 07:50:14;;;;;;;8.32;7.07;;;;;;;;;;4980488;28;20287;-81
2021/11/23 07:52:40;;;;;;;10.60;7.30;;;;;;;;;;4996987;28;20637;-81
2021/11/23 07:55:06;;;;;;;9.57;7.15;;;;;;;;;;4985312;28;20183;-82
2021/11/23 07:57:33;;;;;;;10.45;7.85;;;;;;;;;;4980568;28;20230;-81
2021/11/23 07:59:59;;;;;;;16.52;10.93;;;;;;;;;;4978297;28;20211;-81
2021/11/23 08:02:25;;;;;;;10.00;7.20;;;;;;;;;;4996445;28;20189;-81
2021/11/23 08:04:51;;;;;;;10.30;9.20;;;;;;;;;;4978734;28;20184;-81
2021/11/23 08:07:17;;;;;;;13.80;9.15;;;;;;;;;;4986062;28;20211;-81
2021/11/23 08:09:44;;;;;;;11.82;8.25;;;;;;;;;;4978205;28;20239;-81
2021/11/23 08:12:10;;;;;;;11.23;8.45;;;;;;;;;;4997490;28;20284;-80
2021/11/23 08:14:36;;;;;;;12.98;8.75;;;;;;;;;;4977463;28;20195;-80
2021/11/23 08:17:02;;;;;;;10.52;7.57;;;;;;;;;;4983258;28;20195;-82
2021/11/23 08:19:28;;;;;;;11.13;7.30;;;;;;;;;;4980436;28;20204;-82
2021/11/23 08:21:54;;;;;;;8.35;7.10;;;;;;;;;;4998178;28;20184;-83
2021/11/23 08:24:20;;;;;;;18.00;9.02;;;;;;;;;;4996591;28;20916;-82
2021/11/23 08:26:46;;;;;;;13.25;7.07;;;;;;;;;;4989955;28;20188;-83
2021/11/23 08:29:12;;;;;;;13.00;7.72;;;;;;;;;;4994911;28;20535;-83
2021/11/23 08:31:38;;;;;;;13.32;8.02;;;;;;;;;;5014194;28;20556;-83
2021/11/23 08:34:05;;;;;;;10.30;7.00;;;;;;;;;;5011355;28;20191;-83
2021/11/23 08:36:32;;;;;;;12.20;8.50;;;;;;;;;;4979401;28;20179;-83
2021/11/23 08:38:58;;;;;;;13.68;8.10;;;;;;;;;;4977471;28;20563;-83
2021/11/23 08:41:24;;;;;;;14.93;8.77;;;;;;;;;;4975457;28;20188;-82
2021/11/23 08:43:50;;;;;;;12.70;8.10;;;;;;;;;;4979594;28;20183;-83
2021/11/23 08:46:16;;;;;;;10.93;8.85;;;;;;;;;;4996539;28;20262;-84
2021/11/23 08:48:42;;;;;;;17.00;9.15;;;;;;;;;;4994736;28;20728;-82
2021/11/23 08:51:12;;;;;;;15.88;8.55;;;;;;;;;;4995371;28;20212;-83
2021/11/23 08:53:38;;;;;;;21.08;9.57;;;;;;;;;;4997490;28;20176;-83
2021/11/23 08:56:05;;;;;;;19.80;8.73;;;;;;;;;;4978395;28;20180;-82
2021/11/23 08:58:31;;;;;;;9.13;7.10;;;;;;;;;;4997350;28;20183;-83
2021/11/23 09:00:58;;;;;;;12.70;7.60;;;;;;;;;;4984310;28;20186;-83
2021/11/23 09:03:25;;;;;;;15.18;7.55;;;;;;;;;;4979842;28;20188;-83
2021/11/23 09:05:52;;;;;;;8.00;6.45;;;;;;;;;;4972950;28;20257;-83
2021/11/23 09:08:18;;;;;;;7.53;5.63;;;;;;;;;;4981158;28;20204;-84
2021/11/23 09:10:44;;;;;;;9.07;5.55;;;;;;;;;;4983551;28;20238;-83
2021/11/23 09:13:11;;;;;;;7.50;5.00;;;;;;;;;;4983783;28;20719;-83
2021/11/23 09:15:37;;;;;;;6.15;4.45;;;;;;;;;;4996331;28;20176;-83
2021/11/23 09:18:05;;;;;;;7.63;3.55;;;;;;;;;;4997642;28;20207;-84
2021/11/23 09:20:35;;;;;;;4.57;3.50;;;;;;;;;;4993095;28;20276;-85
2021/11/23 09:23:03;;;;;;;4.15;2.95;;;;;;;;;;4996703;28;20198;-84
2021/11/23 09:25:29;;;;;;;3.33;2.90;;;;;;;;;;4983208;28;20195;-84
2021/11/23 09:27:59;;;;;;;5.05;3.00;;;;;;;;;;4995597;28;20174;-84
2021/11/23 09:30:25;;;;;;;7.65;3.35;;;;;;;;;;4995321;28;20188;-83
2021/11/23 09:32:51;;;;;;;4.03;2.63;;;;;;;;;;4991943;28;20409;-83
2021/11/23 09:35:18;;;;;;;5.03;2.80;;;;;;;;;;4981031;28;20199;-83
2021/11/23 09:37:44;;;;;;;3.60;2.85;;;;;;;;;;4981628;28;20191;-82
2021/11/23 09:40:11;;;;;;;6.80;3.50;;;;;;;;;;4977469;28;20215;-84
2021/11/23 09:42:37;;;;;;;4.85;2.92;;;;;;;;;;4982882;28;20176;-83
2021/11/23 09:45:04;;;;;;;4.55;2.65;;;;;;;;;;4995427;28;20184;-83
2021/11/23 09:47:30;;;;;;;7.43;2.35;;;;;;;;;;4995732;28;20184;-84
2021/11/23 09:50:00;;;;;;;4.07;2.88;;;;;;;;;;4979631;28;20192;-84
2021/11/23 09:52:26;;;;;;;3.08;2.30;;;;;;;;;;4984404;28;20222;-84
2021/11/23 09:54:52;;;;;;;3.85;2.90;;;;;;;;;;4995443;28;20180;-83
2021/11/23 09:57:18;;;;;;;3.15;2.58;;;;;;;;;;4981743;28;20523;-84
2021/11/23 09:59:44;;;;;;;2.25;2.00;;;;;;;;;;4999062;28;20295;-85
2021/11/23 10:02:10;;;;;;;4.07;2.30;;;;;;;;;;4997457;28;20191;-86
2021/11/23 10:04:37;;;;;;;2.30;2.10;;;;;;;;;;4996670;28;20466;-84
2021/11/23 10:07:06;;;;;;;2.83;2.42;;;;;;;;;;4979453;28;20176;-85
2021/11/23 10:09:39;;;;;;;3.30;2.55;;;;;;;;;;4994615;28;20199;-87
2021/11/23 10:12:25;;;;;;;5.68;2.65;;;;;;;;;;4990688;28;20266;-83
2021/11/23 10:15:26;;;;;;;4.90;2.45;;;;;;;;;;4995571;28;20187;-87
2021/11/23 10:17:54;;;;;;;3.70;3.10;;;;;;;;;;4965143;28;20672;-86
2021/11/23 10:20:31;;;;;;;3.72;2.65;;;;;;;;;;4978612;28;20226;-86
2021/11/23 10:22:57;;;;;;;3.63;2.28;;;;;;;;;;4979823;28;20180;-87
2021/11/23 10:25:29;;;;;;;5.95;2.47;;;;;;;;;;5000687;28;20215;-84
2021/11/23 10:27:55;;;;;;;3.05;2.45;;;;;;;;;;4987651;28;20278;-85
2021/11/23 10:30:21;;;;;;;3.17;2.17;;;;;;;;;;4994879;28;20270;-85
2021/11/23 10:32:48;;;;;;;4.38;2.00;;;;;;;;;;4979971;28;20249;-83
2021/11/23 10:35:15;;;;;;;2.25;2.03;;;;;;;;;;4999329;28;20198;-84
2021/11/23 10:37:41;;;;;;;2.38;1.85;;;;;;;;;;4966882;28;20329;-84
2021/11/23 10:40:27;;;;;;;3.78;1.98;;;;;;;;;;4982125;28;20215;-83
2021/11/23 10:42:57;;;;;;;3.28;2.00;;;;;;;;;;4966580;28;20700;-85
2021/11/23 10:45:24;;;;;;;4.82;1.70;;;;;;;;;;4981252;28;20192;-86
2021/11/23 10:47:50;;;;;;;1.65;1.10;;;;;;;;;;4978889;28;20186;-84
2021/11/23 10:50:18;;;;;;;2.80;1.73;;;;;;;;;;4978498;28;20202;-84
2021/11/23 10:52:45;;;;;;;2.00;1.80;;;;;;;;;;4993031;28;20258;-83
2021/11/23 10:55:17;;;;;;;2.05;1.08;;;;;;;;;;4977284;28;20183;-84
2021/11/23 10:57:44;;;;;;;1.45;1.35;;;;;;;;;;4977652;28;20182;-85
2021/11/23 11:00:11;;;;;;;2.20;1.30;;;;;;;;;;4990468;28;20234;-84
2021/11/23 11:02:41;;;;;;;2.60;1.40;;;;;;;;;;4980213;28;20274;-85
2021/11/23 11:05:09;;;;;;;2.50;1.77;;;;;;;;;;4995512;28;20196;-84
2021/11/23 11:07:36;;;;;;;2.45;1.65;;;;;;;;;;4977453;28;20179;-83
2021/11/23 11:10:03;;;;;;;4.28;1.42;;;;;;;;;;4996097;28;20175;-85
2021/11/23 11:12:29;;;;;;;2.28;1.70;;;;;;;;;;4992116;28;20231;-86
2021/11/23 11:14:56;;;;;;;2.38;1.30;;;;;;;;;;4981270;28;20732;-84
2021/11/23 11:17:24;;;;;;;1.88;1.20;;;;;;;;;;4995367;28;20195;-83
2021/11/23 11:19:51;;;;;;;2.05;1.40;;;;;;;;;;4999544;28;20243;-86
2021/11/23 11:22:21;;;;;;;3.58;1.38;;;;;;;;;;4982537;28;20175;-83
2021/11/23 11:25:01;;;;;;;1.55;0.90;;;;;;;;;;4996799;28;20232;-82
2021/11/23 11:27:31;;;;;;;3.20;1.63;;;;;;;;;;4978846;28;20179;-87
2021/11/23 11:30:17;;;;;;;9.63;1.20;;;;;;;;;;4982476;28;20191;-83
2021/11/23 11:32:43;;;;;;;4.65;1.30;;;;;;;;;;4997088;28;20600;-87
2021/11/23 11:35:26;;;;;;;1.80;1.00;;;;;;;;;;4983746;28;20220;-83
2021/11/23 11:37:53;;;;;;;2.80;1.67;;;;;;;;;;4997271;28;20248;-84
2021/11/23 11:40:29;;;;;;;1.48;1.38;;;;;;;;;;4980085;28;20211;-84
2021/11/23 11:42:57;;;;;;;3.20;2.40;;;;;;;;;;5000965;28;20262;-85
2021/11/23 11:45:25;;;;;;;3.20;2.40;;;;;;;;;;4995335;28;20184;-82
2021/11/23 11:47:52;;;;;;;5.75;2.10;;;;;;;;;;4989261;28;20180;-83
2021/11/23 11:50:20;;;;;;;2.08;1.30;;;;;;;;;;4997538;28;20253;-84
2021/11/23 11:52:57;;;;;;;4.07;1.45;;;;;;;;;;4996122;28;20185;-84
2021/11/23 11:55:24;;;;;;;1.88;1.35;;;;;;;;;;4978770;28;20282;-84
2021/11/23 11:57:50;;;;;;;1.45;1.35;;;;;;;;;;4981838;28;20208;-85
2021/11/23 12:00:36;;;;;;;2.03;1.55;;;;;;;;;;4993391;28;20203;-85
2021/11/23 12:03:08;;;;;;;2.13;1.50;;;;;;;;;;4982196;28;20275;-85
2021/11/23 12:06:04;;;;;;;5.18;1.45;;;;;;;;;;4995381;28;20199;-85
2021/11/23 12:08:33;;;;;;;1.20;1.00;;;;;;;;;;4982590;28;20195;-86
2021/11/23 12:11:00;;;;;;;2.47;1.35;;;;;;;;;;4995680;28;20224;-83
2021/11/23 12:13:45;;;;;;;3.20;1.35;;;;;;;;;;4997302;28;20228;-83
2021/11/23 12:16:17;;;;;;;2.47;1.33;;;;;;;;;;4980710;28;20176;-84
2021/11/23 12:19:02;;;;;;;1.33;1.10;;;;;;;;;;4989733;28;20185;-86
2021/11/23 12:21:29;;;;;;;2.33;1.52;;;;;;;;;;4990742;28;20180;-85
2021/11/23 12:23:59;;;;;;;3.40;1.52;;;;;;;;;;4993521;28;20187;-85
2021/11/23 12:26:30;;;;;;;2.60;1.48;;;;;;;;;;4996838;28;20247;-85
2021/11/23 12:29:00;;;;;;;2.55;1.08;;;;;;;;;;4975233;28;20188;-86
2021/11/23 12:31:28;;;;;;;1.75;0.95;;;;;;;;;;4976862;28;20578;-87
2021/11/23 12:34:00;;;;;;;1.50;0.93;;;;;;;;;;4995660;28;20574;-87
2021/11/23 12:36:28;;;;;;;2.75;1.17;;;;;;;;;;4979421;28;20522;-86
2021/11/23 12:38:55;;;;;;;1.40;1.30;;;;;;;;;;4996089;28;20243;-84
2021/11/23 12:41:22;;;;;;;1.92;1.23;;;;;;;;;;4978498;28;20184;-83
2021/11/23 12:43:49;;;;;;;4.20;1.40;;;;;;;;;;4981361;28;20272;-83
2021/11/23 12:46:17;;;;;;;1.60;1.35;;;;;;;;;;4982479;28;20184;-84
2021/11/23 12:48:44;;;;;;;1.20;1.10;;;;;;;;;;4997939;28;20193;-85
2021/11/23 12:51:21;;;;;;;4.03;1.20;;;;;;;;;;4993136;28;20191;-84
2021/11/23 12:53:48;;;;;;;2.40;1.20;;;;;;;;;;4991507;28;20184;-83
2021/11/23 12:56:14;;;;;;;2.78;1.33;;;;;;;;;;4980492;28;20268;-86
2021/11/23 12:58:40;;;;;;;2.45;1.25;;;;;;;;;;4994515;28;20192;-85
2021/11/23 13:01:06;;;;;;;2.28;1.38;;;;;;;;;;4980398;28;20172;-85
2021/11/23 13:03:32;;;;;;;1.70;1.40;;;;;;;;;;4994888;28;20617;-86
2021/11/23 13:06:11;;;;;;;2.72;1.35;;;;;;;;;;4995276;28;20215;-85
2021/11/23 13:08:37;;;;;;;1.52;1.35;;;;;;;;;;4977342;28;20180;-86
2021/11/23 13:11:12;;;;;;;4.15;1.45;;;;;;;;;;4984945;28;1309476;-78
2021/11/23 13:13:40;;;;;;;4.53;1.60;;;;;;;;;;4980916;28;20439;-83
2021/11/23 13:16:06;;;;;;;1.95;1.02;;;;;;;;;;4978736;28;20712;-83
2021/11/23 13:18:32;;;;;;;3.17;0.93;;;;;;;;;;4997990;28;20477;-83
2021/11/23 13:21:03;;;;;;;1.88;1.42;;;;;;;;;;4978582;28;20218;-83
2021/11/23 13:23:37;;;;;;;1.35;1.20;;;;;;;;;;4995355;28;20180;-84
2021/11/23 13:26:11;;;;;;;1.40;1.15;;;;;;;;;;4998851;28;20203;-82
2021/11/23 13:28:43;;;;;;;5.00;1.20;;;;;;;;;;4992949;28;20198;-84
2021/11/23 13:31:14;;;;;;;3.10;1.20;;;;;;;;;;4979545;28;20679;-84
2021/11/23 13:33:44;;;;;;;1.45;1.15;;;;;;;;;;4984697;28;20183;-84
2021/11/23 13:36:14;;;;;;;1.40;0.80;;;;;;;;;;4991775;28;20235;-82
2021/11/23 13:38:41;;;;;;;1.58;1.10;;;;;;;;;;4977319;28;20176;-84
2021/11/23 13:41:13;;;;;;;2.75;1.85;;;;;;;;;;4994917;28;20214;-82
2021/11/23 13:43:41;;;;;;;1.80;1.27;;;;;;;;;;4980739;28;20194;-83
2021/11/23 13:46:07;;;;;;;7.13;1.20;;;;;;;;;;4977925;28;20176;-81
2021/11/23 13:48:33;;;;;;;2.45;2.25;;;;;;;;;;4993260;28;20204;-81
2021/11/23 13:51:01;;;;;;;1.30;1.10;;;;;;;;;;4976910;28;20259;-83
2021/11/23 13:53:27;;;;;;;2.67;1.13;;;;;;;;;;4996124;28;20215;-82
2021/11/23 13:55:54;;;;;;;0.80;0.80;;;;;;;;;;4981778;28;20263;-83
2021/11/23 13:58:20;;;;;;;2.13;1.60;;;;;;;;;;4984627;28;20175;-84
2021/11/23 14:00:46;;;;;;;3.08;1.70;;;;;;;;;;4993628;28;20230;-83
2021/11/23 14:03:13;;;;;;;4.93;1.60;;;;;;;;;;4996273;28;20202;-83
2021/11/23 14:05:47;;;;;;;1.95;1.42;;;;;;;;;;4994399;28;20188;-82
2021/11/23 14:08:26;;;;;;;2.63;1.40;;;;;;;;;;4992812;28;20219;-83
2021/11/23 14:10:53;;;;;;;3.45;1.63;;;;;;;;;;4971199;28;20187;-81
2021/11/23 14:13:21;;;;;;;1.48;1.05;;;;;;;;;;4996731;28;20224;-82
2021/11/23 14:15:51;;;;;;;4.53;1.50;;;;;;;;;;4997653;28;20235;-82
2021/11/23 14:18:17;;;;;;;2.15;1.30;;;;;;;;;;4994988;28;20187;-80
2021/11/23 14:20:46;;;;;;;1.67;1.38;;;;;;;;;;4992163;28;20211;-81
2021/11/23 14:23:23;;;;;;;2.47;1.63;;;;;;;;;;4995741;28;20211;-82
2021/11/23 14:26:07;;;;;;;4.40;1.45;;;;;;;;;;4994085;28;20184;-81
2021/11/23 14:28:34;;;;;;;3.15;1.40;;;;;;;;;;4992553;28;20176;-83
2021/11/23 14:31:00;;;;;;;2.17;1.20;;;;;;;;;;4995916;28;20184;-83
2021/11/23 14:33:26;;;;;;;2.50;1.20;;;;;;;;;;4991089;28;20184;-83
2021/11/23 14:35:53;;;;;;;1.98;1.10;;;;;;;;;;4990489;28;20199;-82
2021/11/23 14:38:19;;;;;;;3.80;1.25;;;;;;;;;;4978527;28;20191;-82
2021/11/23 14:40:45;;;;;;;3.33;1.20;;;;;;;;;;4992795;28;20498;-82